Time;durP1;ratioP1;P1;durP2;ratioP2;P2;SDS_P1;SDS_P2;PMS_P1;PMS_P2;Temp;Humidity;BMP_temperature;BMP_pressure;BME280_temperature;BME280_humidity;BME280_pressure;Samples;Min_cycle;Max_cycle;Signal;HPM_P1;HPM_P2
2022/01/03 00:01:33;;;;;;;44.53;20.52;;;;;;;;;;6113630;23;20907;-84
2022/01/03 00:04:02;;;;;;;42.83;20.02;;;;;;;;;;6114644;23;20437;-85
2022/01/03 00:06:29;;;;;;;41.45;20.67;;;;;;;;;;6115497;23;20375;-85
2022/01/03 00:08:57;;;;;;;41.08;20.60;;;;;;;;;;6115715;23;20371;-86
2022/01/03 00:11:24;;;;;;;39.90;20.17;;;;;;;;;;6115367;23;20860;-84
2022/01/03 00:13:52;;;;;;;39.00;20.48;;;;;;;;;;6115627;23;20697;-85
2022/01/03 00:16:22;;;;;;;40.97;20.45;;;;;;;;;;6114870;23;20429;-85
2022/01/03 00:18:51;;;;;;;39.33;20.45;;;;;;;;;;6115030;23;20402;-84
2022/01/03 00:21:20;;;;;;;41.22;21.02;;;;;;;;;;6114471;23;20994;-85
2022/01/03 00:23:51;;;;;;;38.85;20.00;;;;;;;;;;6115271;23;20451;-84
2022/01/03 00:26:23;;;;;;;39.97;20.83;;;;;;;;;;6115774;23;20375;-85
2022/01/03 00:28:53;;;;;;;39.55;21.58;;;;;;;;;;6117988;23;20547;-85
2022/01/03 00:31:20;;;;;;;37.40;20.60;;;;;;;;;;6117021;23;20434;-85
2022/01/03 00:33:50;;;;;;;42.25;21.10;;;;;;;;;;6117801;23;20704;-86
2022/01/03 00:36:20;;;;;;;38.53;21.52;;;;;;;;;;6116845;23;20375;-86
2022/01/03 00:38:47;;;;;;;40.67;21.17;;;;;;;;;;6118255;23;20467;-85
2022/01/03 00:41:14;;;;;;;41.55;22.20;;;;;;;;;;6116712;23;20430;-84
2022/01/03 00:43:42;;;;;;;38.08;21.48;;;;;;;;;;6090855;23;20371;-86
2022/01/03 00:46:10;;;;;;;41.17;21.60;;;;;;;;;;6117003;23;20434;-85
2022/01/03 00:48:37;;;;;;;41.10;21.98;;;;;;;;;;6117574;23;20709;-86
2022/01/03 00:51:04;;;;;;;45.97;22.88;;;;;;;;;;6123355;23;20387;-86
2022/01/03 00:53:32;;;;;;;42.15;21.98;;;;;;;;;;6117763;23;20421;-86
2022/01/03 00:56:04;;;;;;;42.03;22.25;;;;;;;;;;6118487;23;20382;-85
2022/01/03 00:58:36;;;;;;;44.25;22.25;;;;;;;;;;6111441;23;20479;-85
2022/01/03 01:01:06;;;;;;;41.58;21.48;;;;;;;;;;6113728;23;20894;-84
2022/01/03 01:03:37;;;;;;;40.17;22.17;;;;;;;;;;6115176;23;20378;-86
2022/01/03 01:06:06;;;;;;;42.87;21.97;;;;;;;;;;6113233;23;20721;-86
2022/01/03 01:08:36;;;;;;;39.90;21.73;;;;;;;;;;6113760;23;20756;-86
2022/01/03 01:11:06;;;;;;;42.33;21.33;;;;;;;;;;6112978;23;20383;-86
2022/01/03 01:13:34;;;;;;;44.30;22.70;;;;;;;;;;6114546;23;20741;-86
2022/01/03 01:16:04;;;;;;;43.67;22.42;;;;;;;;;;6117181;23;20480;-86
2022/01/03 01:18:35;;;;;;;44.42;22.70;;;;;;;;;;6117125;23;20367;-86
2022/01/03 01:21:02;;;;;;;47.88;22.77;;;;;;;;;;6115856;23;20704;-86
2022/01/03 01:23:30;;;;;;;46.50;23.98;;;;;;;;;;6116516;23;20856;-86
2022/01/03 01:28:43;;;;;;;47.45;24.73;;;;;;;;;;6117138;23;20606;-86
2022/01/03 01:31:12;;;;;;;42.67;23.23;;;;;;;;;;6116287;23;20409;-86
2022/01/03 01:33:42;;;;;;;42.85;23.90;;;;;;;;;;6116231;23;20374;-85
2022/01/03 01:36:09;;;;;;;46.30;25.65;;;;;;;;;;6115583;23;20371;-86
2022/01/03 01:38:37;;;;;;;45.63;25.03;;;;;;;;;;6116326;23;20421;-86
2022/01/03 01:41:07;;;;;;;47.00;24.95;;;;;;;;;;6115785;23;20870;-85
2022/01/03 01:43:36;;;;;;;44.08;23.92;;;;;;;;;;6117079;23;20844;-86
2022/01/03 01:46:06;;;;;;;42.40;23.92;;;;;;;;;;6116029;23;20689;-86
2022/01/03 01:48:35;;;;;;;44.40;24.17;;;;;;;;;;6116442;23;20355;-85
2022/01/03 01:51:02;;;;;;;43.03;24.73;;;;;;;;;;6115173;23;20441;-86
2022/01/03 01:53:30;;;;;;;47.58;24.73;;;;;;;;;;6115906;23;20732;-86
2022/01/03 01:55:59;;;;;;;46.35;24.88;;;;;;;;;;6115286;23;20426;-86
2022/01/03 01:58:31;;;;;;;44.88;24.77;;;;;;;;;;6115490;23;20885;-85
2022/01/03 02:01:00;;;;;;;44.93;24.33;;;;;;;;;;6114919;23;20422;-86
2022/01/03 02:03:37;;;;;;;49.40;26.10;;;;;;;;;;6114951;23;20903;-86
2022/01/03 02:06:33;;;;;;;48.42;24.85;;;;;;;;;;6114198;23;20844;-86
2022/01/03 02:09:05;;;;;;;44.47;23.92;;;;;;;;;;6085301;23;20446;-86
2022/01/03 02:11:53;;;;;;;45.85;24.45;;;;;;;;;;6115419;23;20391;-85
2022/01/03 02:14:23;;;;;;;48.28;24.17;;;;;;;;;;6110264;23;20375;-85
2022/01/03 02:16:51;;;;;;;47.85;24.65;;;;;;;;;;6114520;23;20363;-85
2022/01/03 02:19:19;;;;;;;48.95;25.15;;;;;;;;;;6113680;23;20669;-85
2022/01/03 02:21:47;;;;;;;44.75;23.50;;;;;;;;;;6114767;23;20371;-85
2022/01/03 02:24:14;;;;;;;43.47;23.20;;;;;;;;;;6114588;23;20844;-85
2022/01/03 02:26:41;;;;;;;41.55;22.63;;;;;;;;;;6114397;23;20371;-85
2022/01/03 02:29:09;;;;;;;45.13;23.33;;;;;;;;;;6114701;23;20855;-85
2022/01/03 02:31:39;;;;;;;48.47;23.90;;;;;;;;;;6115695;23;20503;-86
2022/01/03 02:34:06;;;;;;;48.37;23.33;;;;;;;;;;6115296;23;20699;-85
2022/01/03 02:36:35;;;;;;;50.28;24.08;;;;;;;;;;6116374;23;20378;-85
2022/01/03 02:39:03;;;;;;;50.38;24.55;;;;;;;;;;6115121;23;20363;-85
2022/01/03 02:41:30;;;;;;;47.92;23.50;;;;;;;;;;6116165;23;20363;-85
2022/01/03 02:43:57;;;;;;;49.47;24.58;;;;;;;;;;6115498;23;20682;-85
2022/01/03 02:46:24;;;;;;;50.67;23.37;;;;;;;;;;6116114;23;20418;-85
2022/01/03 02:48:51;;;;;;;52.15;23.80;;;;;;;;;;6115659;23;20390;-86
2022/01/03 02:51:18;;;;;;;54.53;24.73;;;;;;;;;;6115743;23;20438;-85
2022/01/03 02:53:44;;;;;;;48.70;24.35;;;;;;;;;;6115931;23;20363;-85
2022/01/03 02:56:13;;;;;;;48.63;23.50;;;;;;;;;;6115347;23;20708;-85
2022/01/03 02:58:39;;;;;;;49.92;22.88;;;;;;;;;;6115172;23;20373;-85
2022/01/03 03:01:06;;;;;;;49.75;24.05;;;;;;;;;;6115850;23;20363;-85
2022/01/03 03:03:34;;;;;;;51.60;24.35;;;;;;;;;;6116432;23;20367;-85
2022/01/03 03:06:01;;;;;;;52.22;24.48;;;;;;;;;;6116056;23;20385;-85
2022/01/03 03:08:28;;;;;;;49.70;24.17;;;;;;;;;;6116378;23;20367;-85
2022/01/03 03:10:55;;;;;;;53.13;24.43;;;;;;;;;;6116270;23;20370;-85
2022/01/03 03:13:23;;;;;;;45.13;23.63;;;;;;;;;;6116073;23;20390;-85
2022/01/03 03:15:50;;;;;;;51.28;23.88;;;;;;;;;;6116936;23;20402;-86
2022/01/03 03:18:17;;;;;;;54.30;23.60;;;;;;;;;;6116623;23;20434;-86
2022/01/03 03:20:45;;;;;;;51.70;24.17;;;;;;;;;;6116138;23;20371;-86
2022/01/03 03:23:12;;;;;;;57.93;26.30;;;;;;;;;;6116214;23;20460;-86
2022/01/03 03:25:39;;;;;;;51.22;24.60;;;;;;;;;;6117316;23;20371;-86
2022/01/03 03:28:09;;;;;;;54.42;25.70;;;;;;;;;;6121778;23;20379;-84
2022/01/03 03:30:39;;;;;;;57.92;26.45;;;;;;;;;;6135514;23;20362;-83
2022/01/03 03:33:09;;;;;;;55.38;26.70;;;;;;;;;;6144214;23;20395;-84
2022/01/03 03:35:36;;;;;;;56.33;26.23;;;;;;;;;;6144954;23;20354;-83
2022/01/03 03:38:03;;;;;;;56.25;26.50;;;;;;;;;;6139424;23;20752;-86
2022/01/03 03:40:30;;;;;;;62.35;27.35;;;;;;;;;;6144929;23;20379;-86
2022/01/03 03:42:57;;;;;;;55.60;26.85;;;;;;;;;;6144911;23;20398;-86
2022/01/03 03:45:24;;;;;;;56.83;27.52;;;;;;;;;;6145193;23;20355;-86
2022/01/03 03:47:52;;;;;;;57.28;27.98;;;;;;;;;;6145150;23;20358;-86
2022/01/03 03:50:20;;;;;;;67.88;31.40;;;;;;;;;;6126277;23;21057;-86
2022/01/03 03:52:47;;;;;;;64.05;31.23;;;;;;;;;;6119467;23;20590;-86
2022/01/03 03:55:14;;;;;;;63.45;31.50;;;;;;;;;;6119650;23;20378;-85
2022/01/03 03:57:41;;;;;;;60.75;31.42;;;;;;;;;;6119331;23;20375;-86
2022/01/03 04:00:11;;;;;;;65.60;32.13;;;;;;;;;;6116133;23;20906;-85
2022/01/03 04:02:38;;;;;;;65.20;33.33;;;;;;;;;;6117600;23;20374;-85
2022/01/03 04:05:07;;;;;;;60.42;32.55;;;;;;;;;;6117717;23;20373;-85
2022/01/03 04:07:35;;;;;;;61.20;33.05;;;;;;;;;;6117953;23;20478;-85
2022/01/03 04:10:02;;;;;;;62.38;33.80;;;;;;;;;;6117943;23;20370;-86
2022/01/03 04:12:29;;;;;;;62.55;32.85;;;;;;;;;;6117821;23;20768;-86
2022/01/03 04:14:56;;;;;;;61.85;33.85;;;;;;;;;;6118332;23;20371;-85
2022/01/03 04:17:23;;;;;;;60.27;33.40;;;;;;;;;;6117717;23;20367;-85
2022/01/03 04:19:50;;;;;;;61.40;33.45;;;;;;;;;;6117597;23;20910;-85
2022/01/03 04:22:18;;;;;;;60.42;34.17;;;;;;;;;;6117391;23;20422;-85
2022/01/03 04:24:45;;;;;;;57.35;33.85;;;;;;;;;;6118173;23;20728;-85
2022/01/03 04:27:12;;;;;;;64.65;36.35;;;;;;;;;;6116996;23;20851;-85
2022/01/03 04:29:38;;;;;;;59.83;34.42;;;;;;;;;;6117843;23;20363;-85
2022/01/03 04:32:06;;;;;;;58.93;36.67;;;;;;;;;;6117224;23;20387;-85
2022/01/03 04:34:33;;;;;;;64.43;37.53;;;;;;;;;;6117441;23;20373;-85
2022/01/03 04:37:00;;;;;;;59.75;36.88;;;;;;;;;;6117851;23;20371;-86
2022/01/03 04:39:28;;;;;;;62.45;38.05;;;;;;;;;;6118266;23;20374;-85
2022/01/03 04:41:57;;;;;;;60.88;36.60;;;;;;;;;;6117173;23;20422;-85
2022/01/03 04:44:24;;;;;;;58.42;36.50;;;;;;;;;;6117393;23;20399;-86
2022/01/03 04:46:52;;;;;;;64.33;38.53;;;;;;;;;;6118148;23;20359;-85
2022/01/03 04:49:19;;;;;;;63.92;39.78;;;;;;;;;;6117184;23;20686;-85
2022/01/03 04:51:45;;;;;;;67.25;40.20;;;;;;;;;;6117192;23;20753;-86
2022/01/03 04:54:12;;;;;;;69.35;43.13;;;;;;;;;;6116901;23;20837;-85
2022/01/03 04:56:40;;;;;;;64.57;41.33;;;;;;;;;;6117367;23;20374;-85
2022/01/03 04:59:07;;;;;;;64.57;42.30;;;;;;;;;;6117327;23;20839;-85
2022/01/03 05:01:34;;;;;;;66.57;43.17;;;;;;;;;;6117419;23;20366;-85
2022/01/03 05:04:01;;;;;;;66.13;43.97;;;;;;;;;;6115937;23;20367;-85
2022/01/03 05:06:29;;;;;;;65.13;42.40;;;;;;;;;;6116299;23;20736;-85
2022/01/03 05:08:56;;;;;;;64.18;42.67;;;;;;;;;;6115973;23;20375;-85
2022/01/03 05:11:22;;;;;;;61.35;42.25;;;;;;;;;;6116462;23;20375;-85
2022/01/03 05:13:51;;;;;;;66.55;43.10;;;;;;;;;;6116445;23;20367;-85
2022/01/03 05:16:17;;;;;;;64.60;42.97;;;;;;;;;;6116454;23;20430;-86
2022/01/03 05:18:44;;;;;;;59.55;41.03;;;;;;;;;;6116754;23;20363;-85
2022/01/03 05:21:11;;;;;;;61.40;41.38;;;;;;;;;;6116393;23;20367;-85
2022/01/03 05:23:38;;;;;;;60.95;41.05;;;;;;;;;;6115730;23;20433;-85
2022/01/03 05:26:05;;;;;;;62.92;42.25;;;;;;;;;;6116775;23;20551;-85
2022/01/03 05:28:32;;;;;;;65.10;42.40;;;;;;;;;;6116662;23;20692;-86
2022/01/03 05:31:01;;;;;;;60.75;42.80;;;;;;;;;;6116475;23;20368;-85
2022/01/03 05:33:28;;;;;;;63.35;41.10;;;;;;;;;;6116092;23;20727;-85
2022/01/03 05:35:55;;;;;;;64.25;42.17;;;;;;;;;;6116733;23;20375;-85
2022/01/03 05:38:21;;;;;;;64.30;42.45;;;;;;;;;;6116867;23;20359;-86
2022/01/03 05:40:48;;;;;;;61.83;41.47;;;;;;;;;;6116602;23;20367;-85
2022/01/03 05:43:15;;;;;;;57.73;39.93;;;;;;;;;;6115810;23;20491;-85
2022/01/03 05:45:42;;;;;;;61.17;41.28;;;;;;;;;;6116060;23;20367;-85
2022/01/03 05:48:10;;;;;;;60.50;40.53;;;;;;;;;;6116500;23;20367;-86
2022/01/03 05:50:37;;;;;;;56.10;39.97;;;;;;;;;;6115890;23;20423;-85
2022/01/03 05:53:04;;;;;;;60.42;40.05;;;;;;;;;;6115865;23;20454;-85
2022/01/03 05:55:31;;;;;;;57.58;39.45;;;;;;;;;;6116416;23;20414;-85
2022/01/03 05:57:58;;;;;;;59.55;39.75;;;;;;;;;;6115940;23;20378;-85
2022/01/03 06:00:26;;;;;;;58.47;39.33;;;;;;;;;;6116256;23;20749;-85
2022/01/03 06:02:57;;;;;;;55.70;38.55;;;;;;;;;;6116319;23;20580;-86
2022/01/03 06:08:08;;;;;;;56.60;39.13;;;;;;;;;;6110971;23;20823;-86
2022/01/03 06:10:35;;;;;;;57.38;38.53;;;;;;;;;;6116333;23;20378;-86
2022/01/03 06:13:01;;;;;;;59.78;40.00;;;;;;;;;;6115895;23;20394;-85
2022/01/03 06:15:28;;;;;;;58.45;39.03;;;;;;;;;;6116195;23;20471;-85
2022/01/03 06:17:55;;;;;;;55.13;38.65;;;;;;;;;;6116049;23;20367;-85
2022/01/03 06:20:22;;;;;;;54.22;39.35;;;;;;;;;;6116793;23;20705;-86
2022/01/03 06:22:50;;;;;;;56.55;37.80;;;;;;;;;;6116427;23;20748;-85
2022/01/03 06:25:17;;;;;;;54.55;37.80;;;;;;;;;;6116229;23;20377;-85
2022/01/03 06:27:44;;;;;;;54.15;38.63;;;;;;;;;;6116023;23;20367;-85
2022/01/03 06:30:12;;;;;;;57.15;39.70;;;;;;;;;;6115651;23;20749;-85
2022/01/03 06:32:39;;;;;;;58.05;40.17;;;;;;;;;;6115364;23;20466;-85
2022/01/03 06:35:07;;;;;;;60.72;40.88;;;;;;;;;;6115435;23;20375;-85
2022/01/03 06:37:34;;;;;;;57.53;39.97;;;;;;;;;;6115459;23;20434;-86
2022/01/03 06:40:04;;;;;;;61.00;40.88;;;;;;;;;;6115616;23;20733;-85
2022/01/03 06:42:31;;;;;;;61.22;41.20;;;;;;;;;;6116243;23;20370;-84
2022/01/03 06:44:58;;;;;;;61.47;41.28;;;;;;;;;;6116348;23;20370;-86
2022/01/03 06:47:25;;;;;;;54.87;39.27;;;;;;;;;;6116099;23;20392;-85
2022/01/03 06:49:53;;;;;;;57.22;39.60;;;;;;;;;;6116529;23;20375;-85
2022/01/03 06:52:20;;;;;;;59.67;40.15;;;;;;;;;;6115584;23;20399;-85
2022/01/03 06:54:46;;;;;;;58.25;39.78;;;;;;;;;;6115647;23;20733;-86
2022/01/03 06:57:15;;;;;;;58.63;41.03;;;;;;;;;;6113110;23;20381;-86
2022/01/03 06:59:42;;;;;;;57.63;40.47;;;;;;;;;;6116515;23;20375;-85
2022/01/03 07:02:09;;;;;;;56.37;39.93;;;;;;;;;;6116250;23;20371;-85
2022/01/03 07:04:36;;;;;;;56.60;40.88;;;;;;;;;;6117978;23;20367;-85
2022/01/03 07:07:03;;;;;;;58.72;40.35;;;;;;;;;;6115821;23;20418;-85
2022/01/03 07:09:29;;;;;;;54.90;38.83;;;;;;;;;;6116198;23;20362;-86
2022/01/03 07:11:56;;;;;;;56.28;40.33;;;;;;;;;;6115951;23;20375;-85
2022/01/03 07:19:55;;;;;;;61.28;41.63;;;;;;;;;;6115382;23;20424;-85
2022/01/03 07:22:24;;;;;;;57.05;39.35;;;;;;;;;;6116355;23;20367;-86
2022/01/03 07:24:53;;;;;;;59.22;40.80;;;;;;;;;;6116390;23;20429;-85
2022/01/03 07:27:20;;;;;;;54.95;38.13;;;;;;;;;;6116104;23;20914;-86
2022/01/03 07:29:50;;;;;;;55.72;37.60;;;;;;;;;;6115892;23;20359;-85
2022/01/03 07:32:17;;;;;;;56.03;38.33;;;;;;;;;;6115500;23;21039;-86
2022/01/03 07:34:44;;;;;;;55.08;38.05;;;;;;;;;;6115440;23;20363;-85
2022/01/03 07:37:11;;;;;;;52.70;36.80;;;;;;;;;;6117258;23;20374;-86
2022/01/03 07:39:38;;;;;;;52.35;36.50;;;;;;;;;;6117485;23;20733;-86
2022/01/03 07:42:06;;;;;;;54.67;38.03;;;;;;;;;;6117378;23;20374;-85
2022/01/03 07:44:33;;;;;;;56.53;39.42;;;;;;;;;;6117648;23;20883;-85
2022/01/03 07:47:01;;;;;;;56.20;38.00;;;;;;;;;;6118043;23;20363;-86
2022/01/03 07:49:28;;;;;;;50.88;36.40;;;;;;;;;;6118160;23;20371;-86
2022/01/03 07:51:56;;;;;;;53.63;37.67;;;;;;;;;;6117017;23;20371;-85
2022/01/03 07:54:23;;;;;;;55.50;37.85;;;;;;;;;;6117888;23;20445;-86
2022/01/03 07:56:52;;;;;;;56.83;39.33;;;;;;;;;;6117204;23;20374;-86
2022/01/03 07:59:18;;;;;;;59.60;38.95;;;;;;;;;;6118092;23;20430;-86
2022/01/03 08:01:45;;;;;;;55.00;37.60;;;;;;;;;;6117277;23;20426;-86
2022/01/03 08:04:14;;;;;;;55.75;38.63;;;;;;;;;;6117087;23;20859;-86
2022/01/03 08:06:41;;;;;;;53.63;37.77;;;;;;;;;;6117407;23;20414;-86
2022/01/03 08:09:08;;;;;;;53.00;37.85;;;;;;;;;;6117524;23;20371;-86
2022/01/03 08:11:34;;;;;;;56.23;39.90;;;;;;;;;;6118016;23;20378;-86
2022/01/03 08:14:01;;;;;;;58.17;39.28;;;;;;;;;;6117236;23;20397;-86
2022/01/03 08:16:28;;;;;;;58.67;39.22;;;;;;;;;;6117951;23;20375;-86
2022/01/03 08:18:55;;;;;;;55.38;38.42;;;;;;;;;;6116521;23;20371;-86
2022/01/03 08:21:23;;;;;;;53.67;37.97;;;;;;;;;;6117719;23;20363;-86
2022/01/03 08:23:51;;;;;;;51.05;36.50;;;;;;;;;;6117879;23;20377;-86
2022/01/03 08:26:18;;;;;;;55.45;39.03;;;;;;;;;;6117506;23;20375;-86
2022/01/03 08:28:45;;;;;;;53.53;38.15;;;;;;;;;;6117457;23;20390;-86
2022/01/03 08:31:12;;;;;;;53.95;38.83;;;;;;;;;;6117550;23;20363;-86
2022/01/03 08:33:39;;;;;;;52.87;38.37;;;;;;;;;;6118941;23;20880;-85
2022/01/03 08:36:06;;;;;;;55.47;38.60;;;;;;;;;;6116574;23;20906;-86
2022/01/03 08:38:34;;;;;;;55.87;39.37;;;;;;;;;;6117906;23;20434;-85
2022/01/03 08:41:01;;;;;;;53.95;38.10;;;;;;;;;;6116668;23;20383;-85
2022/01/03 08:43:28;;;;;;;55.08;39.45;;;;;;;;;;6117234;23;20364;-85
2022/01/03 08:45:55;;;;;;;55.65;39.03;;;;;;;;;;6116664;23;20381;-85
2022/01/03 08:48:22;;;;;;;57.30;40.50;;;;;;;;;;6117224;23;20370;-85
2022/01/03 08:50:49;;;;;;;61.80;42.72;;;;;;;;;;6117110;23;20370;-85
2022/01/03 08:53:15;;;;;;;64.18;44.20;;;;;;;;;;6117202;23;20387;-85
2022/01/03 08:55:43;;;;;;;69.22;46.45;;;;;;;;;;6117369;23;20363;-85
2022/01/03 08:58:12;;;;;;;72.43;48.22;;;;;;;;;;6117198;23;20367;-86
2022/01/03 09:00:39;;;;;;;67.22;46.47;;;;;;;;;;6116878;23;20364;-85
2022/01/03 09:03:06;;;;;;;65.97;46.38;;;;;;;;;;6119041;23;20363;-85
2022/01/03 09:05:33;;;;;;;72.90;48.45;;;;;;;;;;6118684;23;20363;-85
2022/01/03 09:08:00;;;;;;;74.80;49.35;;;;;;;;;;6117347;23;20397;-85
2022/01/03 09:10:26;;;;;;;69.20;46.45;;;;;;;;;;6117566;23;20374;-84
2022/01/03 09:12:55;;;;;;;66.32;45.78;;;;;;;;;;6116959;23;20710;-86
2022/01/03 09:15:22;;;;;;;67.63;44.53;;;;;;;;;;6121480;23;20468;-86
2022/01/03 09:17:49;;;;;;;65.03;44.57;;;;;;;;;;6117089;23;20430;-86
2022/01/03 09:20:16;;;;;;;65.63;44.67;;;;;;;;;;6117148;23;20733;-85
2022/01/03 09:22:46;;;;;;;62.42;43.03;;;;;;;;;;6116621;23;20371;-86
2022/01/03 09:30:46;;;;;;;78.95;50.65;;;;;;;;;;6116473;23;20491;-84
2022/01/03 09:33:26;;;;;;;66.85;44.60;;;;;;;;;;6126659;23;20418;-84
2022/01/03 09:35:53;;;;;;;67.25;45.38;;;;;;;;;;6117054;23;20419;-83
2022/01/03 09:38:20;;;;;;;66.13;46.50;;;;;;;;;;6117249;23;20391;-85
2022/01/03 09:40:48;;;;;;;74.30;49.17;;;;;;;;;;6116432;23;20426;-86
2022/01/03 09:43:18;;;;;;;68.07;47.28;;;;;;;;;;6116107;23;20371;-83
2022/01/03 09:45:48;;;;;;;69.10;46.40;;;;;;;;;;6116038;23;20367;-85
2022/01/03 09:48:15;;;;;;;65.27;43.63;;;;;;;;;;6117872;23;20367;-86
2022/01/03 09:50:44;;;;;;;66.17;43.50;;;;;;;;;;6116280;23;20428;-85
2022/01/03 09:53:12;;;;;;;70.60;44.65;;;;;;;;;;6116332;23;20401;-85
2022/01/03 09:55:40;;;;;;;67.13;42.15;;;;;;;;;;6116633;23;20367;-85
2022/01/03 09:58:07;;;;;;;66.35;43.25;;;;;;;;;;6116721;23;20374;-85
2022/01/03 10:00:35;;;;;;;64.00;42.15;;;;;;;;;;6116968;23;20363;-85
2022/01/03 10:03:03;;;;;;;61.72;42.22;;;;;;;;;;6117865;23;20378;-84
2022/01/03 10:05:30;;;;;;;69.50;45.30;;;;;;;;;;6116420;23;20402;-85
2022/01/03 10:07:57;;;;;;;70.93;46.83;;;;;;;;;;6119663;23;20379;-85
2022/01/03 10:10:24;;;;;;;99.27;60.00;;;;;;;;;;6116883;23;20360;-87
2022/01/03 10:12:51;;;;;;;110.80;67.65;;;;;;;;;;6117231;23;20740;-86
2022/01/03 10:15:18;;;;;;;73.55;47.35;;;;;;;;;;6117881;23;20400;-87
2022/01/03 10:17:47;;;;;;;63.38;41.40;;;;;;;;;;6130894;23;20387;-87
2022/01/03 10:20:16;;;;;;;71.40;47.00;;;;;;;;;;6144319;23;20379;-86
2022/01/03 10:22:43;;;;;;;68.85;46.03;;;;;;;;;;6144837;23;20366;-85
2022/01/03 10:25:17;;;;;;;85.05;59.65;;;;;;;;;;6143181;23;20363;-85
2022/01/03 10:27:48;;;;;;;71.55;49.17;;;;;;;;;;6142985;23;20359;-86
2022/01/03 10:30:30;;;;;;;79.70;57.55;;;;;;;;;;6147876;23;20359;-85
2022/01/03 10:32:59;;;;;;;68.28;44.40;;;;;;;;;;6148037;23;20355;-85
2022/01/03 10:35:26;;;;;;;73.18;49.90;;;;;;;;;;6146277;23;20370;-85
2022/01/03 10:37:53;;;;;;;71.38;50.38;;;;;;;;;;6139112;23;20375;-85
2022/01/03 10:40:25;;;;;;;70.07;46.35;;;;;;;;;;6131204;23;20359;-85
2022/01/03 10:42:52;;;;;;;71.05;47.92;;;;;;;;;;6130773;23;20417;-85
2022/01/03 10:45:32;;;;;;;73.10;50.00;;;;;;;;;;6130589;23;20371;-86
2022/01/03 10:48:01;;;;;;;69.60;48.05;;;;;;;;;;6122235;23;20375;-85
2022/01/03 10:50:29;;;;;;;76.78;51.97;;;;;;;;;;6119615;23;20379;-85
2022/01/03 10:52:56;;;;;;;77.85;51.95;;;;;;;;;;6119325;23;20879;-85
2022/01/03 10:55:30;;;;;;;78.03;52.95;;;;;;;;;;6119016;23;20394;-86
2022/01/03 10:58:00;;;;;;;80.95;55.78;;;;;;;;;;6117605;23;20375;-85
2022/01/03 11:00:30;;;;;;;80.75;52.65;;;;;;;;;;6118241;23;20443;-85
2022/01/03 11:03:19;;;;;;;81.28;56.42;;;;;;;;;;6117543;23;20409;-86
2022/01/03 11:05:51;;;;;;;83.85;53.50;;;;;;;;;;6118255;23;20425;-85
2022/01/03 11:11:07;;;;;;;79.40;50.20;;;;;;;;;;6118598;23;20397;-86
2022/01/03 11:13:38;;;;;;;76.85;51.13;;;;;;;;;;6117732;23;20395;-86
2022/01/03 11:16:08;;;;;;;80.03;52.72;;;;;;;;;;6116984;23;20371;-85
2022/01/03 11:18:37;;;;;;;82.38;54.72;;;;;;;;;;6116661;23;20387;-85
2022/01/03 11:21:11;;;;;;;83.55;54.50;;;;;;;;;;6122479;23;20359;-85
2022/01/03 11:23:39;;;;;;;81.80;52.47;;;;;;;;;;6116968;23;20389;-84
2022/01/03 11:26:11;;;;;;;78.07;52.95;;;;;;;;;;6116665;23;20430;-85
2022/01/03 11:28:39;;;;;;;79.77;53.23;;;;;;;;;;6116515;23;20457;-85
2022/01/03 11:31:07;;;;;;;79.30;53.65;;;;;;;;;;6116315;23;20479;-84
2022/01/03 11:33:38;;;;;;;75.55;51.22;;;;;;;;;;6116526;23;20363;-83
2022/01/03 11:36:06;;;;;;;73.38;50.03;;;;;;;;;;6116168;23;20367;-86
2022/01/03 11:38:36;;;;;;;77.83;51.07;;;;;;;;;;6116435;23;20376;-85
2022/01/03 11:41:05;;;;;;;73.85;49.15;;;;;;;;;;6116352;23;20363;-85
2022/01/03 11:43:33;;;;;;;74.03;49.53;;;;;;;;;;6116849;23;20363;-85
2022/01/03 11:46:01;;;;;;;74.37;48.40;;;;;;;;;;6116102;23;20478;-85
2022/01/03 11:48:28;;;;;;;70.63;47.95;;;;;;;;;;6116340;23;20382;-85
2022/01/03 11:50:58;;;;;;;70.13;47.63;;;;;;;;;;6115539;23;20375;-86
2022/01/03 11:53:26;;;;;;;71.22;48.53;;;;;;;;;;6115806;23;20374;-87
2022/01/03 11:55:54;;;;;;;73.25;47.10;;;;;;;;;;6116248;23;20414;-86
2022/01/03 11:58:46;;;;;;;70.43;47.05;;;;;;;;;;6116155;23;20426;-86
2022/01/03 12:04:01;;;;;;;69.15;46.53;;;;;;;;;;6115458;23;20366;-86
2022/01/03 12:06:32;;;;;;;67.63;46.05;;;;;;;;;;6115531;23;20867;-86
2022/01/03 12:09:05;;;;;;;68.28;46.55;;;;;;;;;;6114978;23;20367;-84
2022/01/03 12:11:32;;;;;;;70.90;46.15;;;;;;;;;;6115572;23;20844;-86
2022/01/03 12:14:09;;;;;;;68.07;46.17;;;;;;;;;;6115478;23;20375;-84
2022/01/03 12:16:56;;;;;;;66.88;45.00;;;;;;;;;;6115712;23;20374;-86
2022/01/03 12:19:34;;;;;;;63.57;43.30;;;;;;;;;;6115653;23;20367;-86
2022/01/03 12:22:11;;;;;;;69.90;46.78;;;;;;;;;;6115721;23;20376;-86
2022/01/03 12:25:03;;;;;;;67.18;42.53;;;;;;;;;;6117542;23;20832;-86
2022/01/03 12:27:39;;;;;;;68.47;45.15;;;;;;;;;;6112853;23;20373;-86
2022/01/03 12:30:15;;;;;;;61.53;42.25;;;;;;;;;;6115231;23;20390;-86
2022/01/03 12:32:43;;;;;;;62.15;40.83;;;;;;;;;;6113832;23;20374;-86
2022/01/03 12:35:20;;;;;;;63.05;40.65;;;;;;;;;;6115246;23;21214;-85
2022/01/03 12:38:28;;;;;;;58.88;39.40;;;;;;;;;;6116404;23;20465;-86
2022/01/03 12:41:01;;;;;;;58.38;38.92;;;;;;;;;;6116216;23;21213;-86
2022/01/03 12:43:43;;;;;;;54.67;37.40;;;;;;;;;;6116730;23;20377;-85
2022/01/03 12:46:21;;;;;;;52.23;35.57;;;;;;;;;;6115925;23;20461;-86
2022/01/03 12:48:50;;;;;;;52.90;34.55;;;;;;;;;;6116201;23;20371;-85
2022/01/03 12:51:18;;;;;;;55.95;35.60;;;;;;;;;;6115700;23;20434;-85
2022/01/03 12:53:56;;;;;;;53.88;34.60;;;;;;;;;;6113159;23;20758;-86
2022/01/03 12:56:32;;;;;;;50.42;33.65;;;;;;;;;;6115586;23;20386;-86
2022/01/03 12:59:09;;;;;;;45.90;31.90;;;;;;;;;;6114206;23;20437;-85
2022/01/03 13:01:36;;;;;;;51.42;34.35;;;;;;;;;;6114528;23;20383;-85
2022/01/03 13:04:19;;;;;;;50.63;33.88;;;;;;;;;;6115926;23;20422;-85
2022/01/03 13:06:47;;;;;;;50.67;32.83;;;;;;;;;;6116582;23;20467;-85
2022/01/03 13:09:17;;;;;;;46.97;30.88;;;;;;;;;;6117093;23;20371;-85
2022/01/03 13:11:46;;;;;;;42.80;28.70;;;;;;;;;;6122622;23;20458;-86
2022/01/03 13:14:18;;;;;;;43.03;27.13;;;;;;;;;;6126251;23;20410;-85
2022/01/03 13:16:46;;;;;;;35.10;23.02;;;;;;;;;;6126515;23;20379;-85
2022/01/03 13:19:19;;;;;;;36.72;22.83;;;;;;;;;;6119653;23;20461;-85
2022/01/03 13:21:48;;;;;;;34.80;23.92;;;;;;;;;;6125794;23;20370;-83
2022/01/03 13:24:21;;;;;;;35.03;23.63;;;;;;;;;;6131802;23;20381;-84
2022/01/03 13:27:13;;;;;;;31.17;21.45;;;;;;;;;;6125829;23;20363;-85
2022/01/03 13:29:51;;;;;;;34.78;22.73;;;;;;;;;;6131350;23;20379;-85
2022/01/03 13:32:38;;;;;;;33.97;23.80;;;;;;;;;;6128658;23;20649;-84
2022/01/03 13:35:11;;;;;;;37.42;24.98;;;;;;;;;;6130607;23;20441;-84
2022/01/03 13:40:27;;;;;;;37.78;25.35;;;;;;;;;;6130316;23;20379;-82
2022/01/03 13:43:01;;;;;;;35.80;23.13;;;;;;;;;;6132895;23;20383;-84
2022/01/03 13:50:53;;;;;;;37.53;24.73;;;;;;;;;;6113933;23;21080;-85
2022/01/03 13:53:20;;;;;;;37.30;24.10;;;;;;;;;;6114786;23;20363;-85
2022/01/03 13:55:53;;;;;;;33.38;22.85;;;;;;;;;;6115945;23;20483;-85
2022/01/03 13:58:21;;;;;;;28.88;20.67;;;;;;;;;;6115709;23;20788;-85
2022/01/03 14:00:51;;;;;;;26.77;19.58;;;;;;;;;;6113301;23;20385;-85
2022/01/03 14:03:21;;;;;;;29.15;21.08;;;;;;;;;;6116064;23;20399;-85
2022/01/03 14:05:49;;;;;;;29.88;21.55;;;;;;;;;;6116191;23;20360;-86
2022/01/03 14:08:19;;;;;;;31.00;21.60;;;;;;;;;;6116370;23;20595;-85
2022/01/03 14:10:49;;;;;;;33.17;23.15;;;;;;;;;;6115954;23;20947;-85
2022/01/03 14:13:18;;;;;;;31.80;21.90;;;;;;;;;;6115683;23;20375;-85
2022/01/03 14:16:01;;;;;;;35.83;23.77;;;;;;;;;;6116179;23;20892;-85
2022/01/03 14:18:38;;;;;;;35.42;23.88;;;;;;;;;;6114469;23;20764;-86
2022/01/03 14:21:06;;;;;;;36.00;25.00;;;;;;;;;;6116131;23;20407;-85
2022/01/03 14:23:33;;;;;;;34.80;24.33;;;;;;;;;;6117240;23;20371;-85
2022/01/03 14:26:13;;;;;;;38.55;25.83;;;;;;;;;;6115764;23;20367;-85
2022/01/03 14:28:40;;;;;;;35.15;23.50;;;;;;;;;;6115725;23;20559;-85
2022/01/03 14:31:11;;;;;;;31.70;22.50;;;;;;;;;;6114666;23;20355;-85
2022/01/03 14:33:39;;;;;;;33.75;22.17;;;;;;;;;;6116671;23;20370;-85
2022/01/03 14:36:13;;;;;;;30.15;21.75;;;;;;;;;;6116224;23;20430;-86
2022/01/03 14:38:41;;;;;;;29.77;21.30;;;;;;;;;;6116523;23;20635;-85
2022/01/03 14:41:20;;;;;;;31.50;20.98;;;;;;;;;;6115345;23;20367;-85
2022/01/03 14:43:55;;;;;;;29.48;20.70;;;;;;;;;;6112963;23;20362;-86
2022/01/03 14:46:29;;;;;;;28.08;21.13;;;;;;;;;;6115659;23;20492;-85
2022/01/03 14:48:56;;;;;;;30.83;21.17;;;;;;;;;;6115440;23;20429;-85
2022/01/03 14:51:34;;;;;;;30.90;21.48;;;;;;;;;;6116560;23;20374;-85
2022/01/03 14:54:11;;;;;;;32.13;20.95;;;;;;;;;;6110811;23;20415;-85
2022/01/03 14:56:39;;;;;;;29.20;21.17;;;;;;;;;;6115215;23;20486;-85
2022/01/03 14:59:14;;;;;;;33.15;22.05;;;;;;;;;;6116062;23;20481;-85